Time;durP1;ratioP1;P1;durP2;ratioP2;P2;SDS_P1;SDS_P2;PMS_P1;PMS_P2;Temp;Humidity;BMP_temperature;BMP_pressure;BME280_temperature;BME280_humidity;BME280_pressure;Samples;Min_cycle;Max_cycle;Signal;HPM_P1;HPM_P2
2022/05/04 00:01:58;;;;;;;14.03;5.80;;;;;;;3.71;100.00;100611.06;7388430;19;20392;-60
2022/05/04 00:04:28;;;;;;;14.33;6.63;;;;;;;3.68;100.00;100592.97;7393819;19;20395;-59
2022/05/04 00:06:57;;;;;;;16.10;5.50;;;;;;;3.64;100.00;100578.25;7389507;19;20384;-59
2022/05/04 00:09:27;;;;;;;14.47;5.70;;;;;;;3.65;100.00;100573.25;7394989;19;20401;-58
2022/05/04 00:11:56;;;;;;;14.93;5.50;;;;;;;3.62;100.00;100555.19;7390228;19;20373;-58
2022/05/04 00:14:26;;;;;;;19.90;5.60;;;;;;;3.62;100.00;100547.53;7393475;19;20394;-59
2022/05/04 00:16:58;;;;;;;17.43;6.60;;;;;;;3.61;100.00;100545.78;7387970;19;20442;-61
2022/05/04 00:19:33;;;;;;;13.63;5.97;;;;;;;3.60;100.00;100541.41;7395456;19;20506;-59
2022/05/04 00:22:03;;;;;;;21.40;5.93;;;;;;;3.54;100.00;100540.16;7388004;19;20943;-59
2022/05/04 00:24:32;;;;;;;18.27;6.80;;;;;;;3.41;100.00;100539.31;7393405;19;20414;-58
2022/05/04 00:27:02;;;;;;;15.50;5.40;;;;;;;3.36;100.00;100533.91;7388925;19;20969;-59
2022/05/04 00:29:31;;;;;;;13.40;5.17;;;;;;;3.35;100.00;100532.13;7394505;19;20379;-59
2022/05/04 00:32:03;;;;;;;13.83;6.00;;;;;;;3.33;100.00;100525.19;7389256;19;22249;-58
2022/05/04 00:34:33;;;;;;;15.00;5.60;;;;;;;3.25;100.00;100522.09;7396099;19;20415;-59
2022/05/04 00:37:03;;;;;;;15.30;5.83;;;;;;;3.23;100.00;100518.59;7381295;19;20764;-57
2022/05/04 00:39:32;;;;;;;16.57;5.50;;;;;;;3.32;100.00;100508.09;7393292;19;20371;-57
2022/05/04 00:42:12;;;;;;;11.33;5.20;;;;;;;3.19;100.00;100512.34;7389836;19;20434;-59
2022/05/04 00:44:44;;;;;;;26.83;6.70;;;;;;;3.22;100.00;100506.59;7392681;19;20475;-57
2022/05/04 00:47:16;;;;;;;18.03;5.43;;;;;;;3.09;100.00;100508.31;7389409;19;20405;-56
2022/05/04 00:49:47;;;;;;;22.33;6.10;;;;;;;3.05;100.00;100493.59;7393824;19;20384;-59
2022/05/04 00:52:19;;;;;;;24.87;6.40;;;;;;;3.07;100.00;100469.09;7385872;19;20436;-60
2022/05/04 00:54:50;;;;;;;15.10;5.47;;;;;;;3.08;100.00;100455.56;7392802;19;20401;-55
2022/05/04 00:58:54;;;;;;;16.10;6.60;;;;;;;3.07;100.00;100443.59;7383438;19;20442;-59
2022/05/04 01:00:12;;;;;;;20.23;5.10;;;;;;;3.07;100.00;100429.94;7395155;19;20398;-58
2022/05/04 01:02:44;;;;;;;19.63;5.80;;;;;;;3.05;100.00;100426.41;7386908;19;20398;-58
2022/05/04 01:05:14;;;;;;;16.00;6.30;;;;;;;2.99;100.00;100426.00;7392511;19;20925;-58
2022/05/04 01:07:48;;;;;;;14.70;5.33;;;;;;;2.73;100.00;100414.94;7385481;19;20848;-59
2022/05/04 01:10:18;;;;;;;18.00;5.47;;;;;;;2.55;100.00;100403.63;7391889;19;20449;-60
2022/05/04 01:12:48;;;;;;;23.03;6.00;;;;;;;2.59;100.00;100375.78;7388093;19;20423;-60
2022/05/04 01:15:18;;;;;;;28.57;6.10;;;;;;;2.66;100.00;100355.06;7392242;19;20415;-55
2022/05/04 01:17:51;;;;;;;25.10;6.93;;;;;;;2.58;100.00;100330.72;7388297;19;20414;-56
2022/05/04 01:20:24;;;;;;;22.03;6.43;;;;;;;2.69;100.00;100319.59;7393071;19;20453;-57
2022/05/04 01:22:57;;;;;;;16.97;6.10;;;;;;;2.70;100.00;100303.50;7388399;19;20498;-56
2022/05/04 01:25:27;;;;;;;13.73;6.10;;;;;;;2.65;100.00;100294.69;7391283;19;20415;-57
2022/05/04 01:27:56;;;;;;;22.17;6.80;;;;;;;2.60;100.00;100298.63;7386763;19;20406;-56
2022/05/04 01:30:26;;;;;;;14.90;6.90;;;;;;;2.67;100.00;100300.78;7392558;19;20394;-57
2022/05/04 01:32:55;;;;;;;17.90;7.50;;;;;;;2.66;100.00;100301.56;7383764;19;20398;-58
2022/05/04 01:35:25;;;;;;;22.83;8.53;;;;;;;2.58;100.00;100284.88;7391102;19;20458;-59
2022/05/04 01:37:57;;;;;;;18.33;6.43;;;;;;;2.62;100.00;100286.84;7385632;19;20419;-59
2022/05/04 01:40:27;;;;;;;14.10;6.77;;;;;;;2.60;100.00;100283.31;7392277;19;20968;-57
2022/05/04 01:42:56;;;;;;;17.50;5.93;;;;;;;2.61;100.00;100280.00;7381968;19;20418;-57
2022/05/04 01:45:26;;;;;;;19.87;6.10;;;;;;;2.60;100.00;100273.13;7390436;19;20499;-59
2022/05/04 01:47:55;;;;;;;21.90;7.20;;;;;;;2.62;100.00;100272.44;7379321;19;20398;-55
2022/05/04 01:50:25;;;;;;;16.73;7.03;;;;;;;2.63;100.00;100265.69;7392613;19;20371;-58
2022/05/04 01:52:57;;;;;;;21.73;7.23;;;;;;;2.50;100.00;100264.88;7385778;19;20474;-54
2022/05/04 01:55:28;;;;;;;18.47;8.30;;;;;;;2.55;100.00;100260.06;7390548;19;20439;-55
2022/05/04 01:57:57;;;;;;;19.93;7.27;;;;;;;2.55;100.00;100248.25;7384580;19;20413;-58
2022/05/04 02:00:27;;;;;;;17.87;7.90;;;;;;;2.57;100.00;100245.81;7392307;19;20397;-58
2022/05/04 02:02:57;;;;;;;19.43;7.33;;;;;;;2.56;100.00;100233.81;7387834;19;20746;-57
2022/05/04 02:05:27;;;;;;;24.53;8.80;;;;;;;2.59;100.00;100226.41;7393177;19;20414;-58
2022/05/04 02:07:59;;;;;;;21.50;8.40;;;;;;;2.59;100.00;100225.50;7381698;19;20434;-58
2022/05/04 02:10:29;;;;;;;19.10;8.30;;;;;;;2.48;100.00;100227.34;7394894;19;20375;-57
2022/05/04 02:12:58;;;;;;;14.60;7.23;;;;;;;2.49;100.00;100219.81;7387915;19;20422;-60
2022/05/04 02:15:33;;;;;;;28.93;8.70;;;;;;;2.50;100.00;100215.59;7389778;19;20818;-60
2022/05/04 02:18:02;;;;;;;15.40;7.17;;;;;;;2.51;100.00;100218.25;7385597;19;20417;-56
2022/05/04 02:20:32;;;;;;;19.07;8.03;;;;;;;2.56;100.00;100214.34;7391956;19;20741;-59
2022/05/04 02:23:04;;;;;;;21.67;7.90;;;;;;;2.53;100.00;100220.91;7390493;19;20639;-58
2022/05/04 02:25:33;;;;;;;21.07;8.50;;;;;;;2.53;100.00;100211.59;7396914;19;20759;-59
2022/05/04 02:28:03;;;;;;;21.53;9.23;;;;;;;2.37;100.00;100216.47;7392064;19;20750;-60
2022/05/04 02:30:32;;;;;;;28.57;9.57;;;;;;;2.22;100.00;100214.66;7399114;19;20392;-59
2022/05/04 02:33:02;;;;;;;20.23;8.53;;;;;;;2.21;100.00;100225.59;7392882;19;20417;-58
2022/05/04 02:38:16;;;;;;;27.63;8.00;;;;;;;2.22;100.00;100213.78;7392505;19;20398;-56
2022/05/04 02:40:45;;;;;;;19.00;9.13;;;;;;;2.20;100.00;100195.84;7398476;19;20393;-59
2022/05/04 02:43:15;;;;;;;23.67;9.00;;;;;;;2.18;100.00;100197.41;7389745;19;20415;-56
2022/05/04 02:45:44;;;;;;;19.67;7.77;;;;;;;2.10;100.00;100190.94;7395815;19;20402;-58
2022/05/04 02:48:14;;;;;;;19.27;8.00;;;;;;;2.08;100.00;100184.84;7393075;19;20438;-54
2022/05/04 02:50:43;;;;;;;21.27;8.80;;;;;;;2.07;100.00;100189.06;7398117;19;20386;-54
2022/05/04 02:53:16;;;;;;;20.53;10.03;;;;;;;2.06;100.00;100181.31;7392334;19;20423;-59
2022/05/04 02:55:46;;;;;;;24.37;9.70;;;;;;;2.08;100.00;100174.66;7395902;19;20418;-56
2022/05/04 02:58:15;;;;;;;23.20;8.40;;;;;;;2.05;100.00;100170.25;7391634;19;20405;-59
2022/05/04 03:00:44;;;;;;;17.63;8.20;;;;;;;2.09;100.00;100166.25;7397603;19;20999;-54
2022/05/04 03:03:11;;;;;;;18.40;8.13;;;;;;;2.05;100.00;100159.22;7393064;19;20426;-56
2022/05/04 03:05:41;;;;;;;25.80;8.00;;;;;;;2.01;100.00;100153.91;7395309;19;20402;-58
2022/05/04 03:08:10;;;;;;;20.00;8.10;;;;;;;2.03;100.00;100156.56;7390007;19;20417;-56
2022/05/04 03:13:24;;;;;;;20.30;8.50;;;;;;;2.07;100.00;100137.28;7390472;19;20419;-58
2022/05/04 03:15:54;;;;;;;19.73;7.80;;;;;;;2.00;100.00;100139.41;7394935;19;20391;-54
2022/05/04 03:18:23;;;;;;;18.00;8.67;;;;;;;1.99;100.00;100140.19;7392073;19;20980;-57
2022/05/04 03:20:53;;;;;;;14.30;8.30;;;;;;;2.00;100.00;100124.16;7397121;19;20367;-57
2022/05/04 03:23:22;;;;;;;25.30;10.23;;;;;;;2.01;100.00;100119.94;7389627;19;20414;-58
2022/05/04 03:25:54;;;;;;;37.47;17.00;;;;;;;2.21;100.00;100111.06;7394760;19;20417;-58
2022/05/04 03:28:23;;;;;;;39.70;20.30;;;;;;;3.37;100.00;100085.91;7389075;19;20419;-59
2022/05/04 03:30:53;;;;;;;26.87;10.30;;;;;;;3.31;100.00;100096.63;7397131;19;20367;-58
2022/05/04 03:33:22;;;;;;;31.37;14.07;;;;;;;3.47;100.00;100102.66;7386926;19;20430;-58
2022/05/04 03:35:52;;;;;;;22.87;11.70;;;;;;;3.74;100.00;100103.41;7394614;19;20516;-57
2022/05/04 03:38:21;;;;;;;20.43;8.70;;;;;;;3.76;100.00;100118.81;7389939;19;20430;-56
2022/05/04 03:40:53;;;;;;;18.77;9.80;;;;;;;4.01;100.00;100125.34;7396671;19;20384;-57
2022/05/04 03:43:23;;;;;;;14.27;7.33;;;;;;;4.37;100.00;100141.03;7389424;19;20409;-59
2022/05/04 03:45:53;;;;;;;25.17;8.57;;;;;;;4.02;100.00;100152.63;7394246;19;20398;-58
2022/05/04 03:48:23;;;;;;;22.17;8.37;;;;;;;4.55;100.00;100161.63;7391278;19;20409;-59
2022/05/04 03:50:52;;;;;;;17.67;8.00;;;;;;;4.62;100.00;100173.09;7396194;19;20899;-58
2022/05/04 03:53:22;;;;;;;19.27;7.23;;;;;;;4.71;100.00;100183.81;7390727;19;20415;-58
2022/05/04 03:55:57;;;;;;;16.17;6.27;;;;;;;4.72;100.00;100200.06;7394072;19;20407;-59
2022/05/04 03:58:26;;;;;;;19.87;6.90;;;;;;;4.54;100.00;100220.31;7388565;19;20481;-60
2022/05/04 04:00:56;;;;;;;16.33;7.63;;;;;;;4.54;100.00;100240.75;7395923;19;20383;-59
2022/05/04 04:03:25;;;;;;;12.37;6.67;;;;;;;4.10;100.00;100243.31;7390324;19;20438;-58
2022/05/04 04:05:55;;;;;;;12.50;6.30;;;;;;;4.38;100.00;100252.63;7393558;19;20391;-59
2022/05/04 04:08:25;;;;;;;17.33;7.20;;;;;;;4.55;100.00;100252.72;7381844;19;20454;-59
2022/05/04 04:10:58;;;;;;;16.37;6.70;;;;;;;4.83;100.00;100265.41;7395566;19;20394;-60
2022/05/04 04:13:28;;;;;;;18.43;6.43;;;;;;;4.89;100.00;100277.69;7388998;19;20415;-58
2022/05/04 04:15:58;;;;;;;13.33;6.13;;;;;;;4.35;100.00;100293.31;7398519;19;20435;-59
2022/05/04 04:18:29;;;;;;;13.70;6.50;;;;;;;5.11;100.00;100291.69;7386194;19;20418;-57
2022/05/04 04:23:41;;;;;;;16.30;7.70;;;;;;;4.36;100.00;100315.50;7389001;19;20952;-59
2022/05/04 04:26:13;;;;;;;17.30;6.87;;;;;;;4.35;100.00;100306.09;7393623;19;20486;-57
2022/05/04 04:28:43;;;;;;;16.40;6.57;;;;;;;4.47;100.00;100313.63;7389293;19;20427;-58
2022/05/04 04:31:13;;;;;;;55.73;24.33;;;;;;;4.71;100.00;100310.72;7394631;19;20370;-58
2022/05/04 04:33:42;;;;;;;20.93;7.10;;;;;;;4.06;100.00;100315.44;7388064;19;20942;-56
2022/05/04 04:36:12;;;;;;;68.80;31.53;;;;;;;4.56;100.00;100308.16;7393385;19;20648;-58
2022/05/04 04:38:41;;;;;;;113.07;54.90;;;;;;;5.05;100.00;100302.44;7387715;19;20457;-58
2022/05/04 04:41:14;;;;;;;79.47;39.70;;;;;;;4.82;100.00;100324.16;7394230;19;20392;-56
2022/05/04 04:43:43;;;;;;;19.63;9.30;;;;;;;4.19;100.00;100328.16;7386182;19;20411;-59
2022/05/04 04:46:13;;;;;;;24.57;12.40;;;;;;;3.82;100.00;100328.47;7390010;19;20960;-58
2022/05/04 04:48:42;;;;;;;14.23;6.60;;;;;;;3.58;100.00;100328.69;7389588;19;20441;-56
2022/05/04 04:51:12;;;;;;;12.40;6.70;;;;;;;3.40;100.00;100322.41;7394078;19;20458;-59
2022/05/04 04:53:42;;;;;;;14.27;6.50;;;;;;;3.31;100.00;100318.50;7383256;19;20433;-57
2022/05/04 04:56:14;;;;;;;18.80;7.20;;;;;;;3.29;100.00;100308.97;7393561;19;20413;-57
2022/05/04 04:58:44;;;;;;;19.53;7.00;;;;;;;3.25;100.00;100310.44;7383577;19;20431;-54
2022/05/04 05:01:13;;;;;;;17.33;7.97;;;;;;;3.31;100.00;100307.41;7397088;19;20375;-58
2022/05/04 05:03:43;;;;;;;19.73;7.60;;;;;;;3.35;100.00;100299.16;7386465;19;20413;-58
2022/05/04 05:06:13;;;;;;;22.93;8.33;;;;;;;3.30;100.00;100296.34;7391999;19;20477;-56
2022/05/04 05:08:44;;;;;;;18.30;7.30;;;;;;;3.37;100.00;100298.50;7384905;19;20409;-55
2022/05/04 05:11:16;;;;;;;18.97;6.63;;;;;;;3.45;100.00;100285.31;7393543;19;20877;-58
2022/05/04 05:16:28;;;;;;;18.00;7.47;;;;;;;3.67;100.00;100284.09;7391352;19;20419;-59
2022/05/04 05:18:57;;;;;;;14.13;6.77;;;;;;;3.79;100.00;100282.31;7385219;19;20422;-56
2022/05/04 05:21:27;;;;;;;21.63;6.90;;;;;;;3.89;100.00;100282.09;7393060;19;20393;-59
2022/05/04 05:23:56;;;;;;;16.20;7.10;;;;;;;4.03;100.00;100287.16;7386846;19;20406;-59
2022/05/04 05:26:28;;;;;;;19.80;8.23;;;;;;;4.12;100.00;100286.84;7391305;19;20416;-59
2022/05/04 05:28:58;;;;;;;19.23;7.40;;;;;;;4.28;100.00;100281.88;7386367;19;20406;-56
2022/05/04 05:31:28;;;;;;;18.43;6.80;;;;;;;4.38;100.00;100278.19;7392711;19;20394;-58
2022/05/04 05:33:58;;;;;;;17.40;6.23;;;;;;;4.49;100.00;100288.13;7385022;19;20419;-57
2022/05/04 05:36:27;;;;;;;24.83;6.10;;;;;;;4.61;100.00;100288.84;7391223;19;20416;-58
2022/05/04 05:38:57;;;;;;;17.90;6.10;;;;;;;4.72;100.00;100292.91;7384575;19;20433;-58
2022/05/04 05:41:29;;;;;;;15.10;5.50;;;;;;;4.77;100.00;100293.19;7392101;19;20383;-59
2022/05/04 05:43:58;;;;;;;22.00;6.77;;;;;;;4.85;100.00;100293.63;7385222;19;20418;-57
2022/05/04 05:46:30;;;;;;;15.37;5.70;;;;;;;4.84;100.00;100299.53;7390722;19;20420;-59
2022/05/04 05:49:00;;;;;;;16.33;5.73;;;;;;;4.93;100.00;100306.84;7386068;19;20415;-58
2022/05/04 05:51:29;;;;;;;21.77;6.40;;;;;;;5.02;100.00;100307.38;7392031;19;20372;-60
2022/05/04 05:53:59;;;;;;;16.80;6.00;;;;;;;5.10;100.00;100316.38;7386122;19;20415;-54
2022/05/04 05:56:31;;;;;;;13.90;5.60;;;;;;;5.18;100.00;100324.47;7391920;19;20715;-57
2022/05/04 05:59:00;;;;;;;20.47;6.60;;;;;;;5.22;100.00;100325.53;7393258;19;20431;-58
2022/05/04 06:01:30;;;;;;;20.53;7.60;;;;;;;5.33;100.00;100323.59;7397714;19;20714;-58
2022/05/04 06:03:59;;;;;;;40.10;18.77;;;;;;;5.58;100.00;100324.97;7393977;19;20438;-56
2022/05/04 06:06:29;;;;;;;8.93;5.20;;;;;;;5.61;100.00;100345.59;7397479;19;20428;-56
2022/05/04 06:08:58;;;;;;;27.53;14.90;;;;;;;5.84;100.00;100354.53;7390491;19;20427;-57
2022/05/04 06:11:31;;;;;;;9.33;5.13;;;;;;;6.01;100.00;100362.25;7397685;19;20374;-60
2022/05/04 06:14:00;;;;;;;10.80;5.30;;;;;;;6.46;100.00;100383.44;7387993;19;20415;-60
2022/05/04 06:16:30;;;;;;;16.10;3.10;;;;;;;6.34;100.00;100426.38;7396473;19;20427;-59
2022/05/04 06:18:59;;;;;;;12.97;3.63;;;;;;;6.31;100.00;100491.16;7391846;19;20431;-59
2022/05/04 06:21:29;;;;;;;102.23;52.10;;;;;;;6.95;100.00;100525.31;7398447;19;20918;-60
2022/05/04 06:23:58;;;;;;;13.43;3.27;;;;;;;6.88;100.00;100616.41;7393450;19;20404;-59
2022/05/04 06:26:31;;;;;;;7.63;2.97;;;;;;;6.68;100.00;100682.00;7396342;19;20479;-59
2022/05/04 06:29:00;;;;;;;10.03;3.03;;;;;;;6.72;100.00;100722.38;7394508;19;20443;-57
2022/05/04 06:34:15;;;;;;;6.00;1.83;;;;;;;6.87;100.00;100819.84;7394783;19;20429;-57
2022/05/04 06:36:45;;;;;;;9.60;4.00;;;;;;;7.34;100.00;100840.41;7389129;19;20793;-60
2022/05/04 06:39:15;;;;;;;10.70;5.13;;;;;;;7.41;100.00;100883.63;7397294;19;20397;-59
2022/05/04 06:41:48;;;;;;;34.70;15.97;;;;;;;7.22;100.00;100924.44;7389157;19;20394;-58
2022/05/04 06:44:18;;;;;;;7.90;2.60;;;;;;;7.26;100.00;100950.38;7399489;19;20407;-59
2022/05/04 06:46:48;;;;;;;7.03;2.30;;;;;;;7.27;100.00;100971.78;7392797;19;20398;-56
2022/05/04 06:49:17;;;;;;;12.80;4.70;;;;;;;7.35;100.00;100991.09;7397237;19;20395;-59
2022/05/04 06:51:47;;;;;;;8.27;2.50;;;;;;;7.37;100.00;101025.44;7386990;19;20414;-56
2022/05/04 06:54:16;;;;;;;14.97;4.20;;;;;;;7.18;100.00;101038.84;7400339;19;20388;-57
2022/05/04 06:56:55;;;;;;;6.50;2.33;;;;;;;7.34;100.00;101050.03;7385322;19;20393;-59
2022/05/04 06:59:26;;;;;;;13.67;3.57;;;;;;;7.50;100.00;101054.41;7396055;19;20819;-56
2022/05/04 07:01:56;;;;;;;6.97;2.30;;;;;;;7.48;100.00;101074.84;7389048;19;20965;-59
2022/05/04 07:04:26;;;;;;;11.87;2.50;;;;;;;7.53;100.00;101083.72;7396104;19;20382;-59
2022/05/04 07:06:55;;;;;;;8.10;2.00;;;;;;;7.80;100.00;101085.25;7387289;19;20397;-59
2022/05/04 07:09:25;;;;;;;18.53;2.40;;;;;;;8.05;100.00;101079.84;7397652;19;20727;-59
2022/05/04 07:11:58;;;;;;;19.10;6.80;;;;;;;8.19;100.00;101102.84;7389055;19;20736;-60
2022/05/04 07:14:27;;;;;;;11.93;2.23;;;;;;;8.18;100.00;101126.78;7396110;19;20403;-59
2022/05/04 07:16:57;;;;;;;4.40;1.70;;;;;;;8.13;100.00;101134.25;7391610;19;20822;-58
2022/05/04 07:19:29;;;;;;;24.80;9.80;;;;;;;7.83;100.00;101131.66;7394851;19;20388;-56
2022/05/04 07:21:59;;;;;;;17.27;5.07;;;;;;;7.81;100.00;101136.69;7392528;19;20412;-56
2022/05/04 07:24:28;;;;;;;8.10;2.50;;;;;;;7.81;100.00;101125.56;7399944;19;20399;-59
2022/05/04 07:27:00;;;;;;;6.57;1.90;;;;;;;7.79;100.00;101143.44;7392204;19;20450;-60
2022/05/04 07:29:30;;;;;;;35.97;14.63;;;;;;;7.72;100.00;101155.81;7396771;19;20396;-59
2022/05/04 07:32:00;;;;;;;88.23;39.40;;;;;;;7.88;100.00;101158.50;7391342;19;20768;-59
2022/05/04 07:34:30;;;;;;;6.80;2.70;;;;;;;8.03;100.00;101162.78;7395387;19;20394;-59
2022/05/04 07:36:59;;;;;;;12.47;2.20;;;;;;;8.27;100.00;101153.06;7388700;19;20380;-61
2022/05/04 07:42:26;;;;;;;20.17;8.27;;;;;;;8.13;100.00;101175.38;7388090;19;20423;-58
2022/05/04 07:45:00;;;;;;;14.70;5.20;;;;;;;8.16;100.00;101170.41;7398574;19;20979;-60
2022/05/04 07:47:32;;;;;;;7.83;2.30;;;;;;;8.00;100.00;101162.59;7391193;19;20772;-60
2022/05/04 07:50:03;;;;;;;10.73;2.80;;;;;;;7.99;100.00;101169.41;7396457;19;20795;-58
2022/05/04 07:52:32;;;;;;;5.83;2.47;;;;;;;8.10;100.00;101177.75;7390862;19;20478;-58
2022/05/04 07:55:02;;;;;;;20.50;2.80;;;;;;;8.48;100.00;101176.53;7393730;19;20837;-59
2022/05/04 07:57:34;;;;;;;12.00;3.47;;;;;;;8.28;100.00;101197.63;7390090;19;20449;-60
2022/05/04 08:05:32;;;;;;;13.53;4.60;;;;;;;8.82;100.00;101202.41;7394048;19;20438;-59
2022/05/04 08:08:01;;;;;;;19.13;7.13;;;;;;;8.75;100.00;101220.09;7388678;19;20942;-57
2022/05/04 08:10:31;;;;;;;10.83;2.40;;;;;;;8.57;100.00;101230.19;7398788;19;20924;-59
2022/05/04 08:13:03;;;;;;;24.33;10.00;;;;;;;8.43;100.00;101224.25;7391557;19;20447;-57
2022/05/04 08:15:32;;;;;;;9.93;3.00;;;;;;;8.42;100.00;101230.19;7392671;19;20415;-58
2022/05/04 08:18:02;;;;;;;8.20;2.33;;;;;;;8.33;100.00;101225.38;7388514;19;20411;-58
2022/05/04 08:20:32;;;;;;;10.53;2.80;;;;;;;8.32;100.00;101227.88;7393931;19;20416;-57
2022/05/04 08:23:01;;;;;;;9.90;4.30;;;;;;;8.59;100.00;101210.59;7388516;19;20933;-58
2022/05/04 08:25:31;;;;;;;7.10;2.07;;;;;;;8.58;100.00;101231.09;7393172;19;20765;-57
2022/05/04 08:28:03;;;;;;;5.63;1.73;;;;;;;8.59;100.00;101238.91;7389308;19;21074;-60
2022/05/04 08:30:33;;;;;;;3.83;1.53;;;;;;;8.78;100.00;101258.84;7394576;19;20383;-56
2022/05/04 08:33:02;;;;;;;16.80;7.80;;;;;;;9.27;100.00;101241.78;7388648;19;20750;-59
2022/05/04 08:35:32;;;;;;;14.93;2.60;;;;;;;9.56;100.00;101269.94;7392612;19;20417;-57
2022/05/04 08:38:02;;;;;;;8.27;1.90;;;;;;;9.88;100.00;101275.06;7389622;19;20494;-58
2022/05/04 08:40:31;;;;;;;30.33;9.27;;;;;;;9.78;100.00;101283.97;7393239;19;20386;-57
2022/05/04 08:43:05;;;;;;;15.53;6.43;;;;;;;9.58;100.00;101295.00;7388717;19;20419;-58
2022/05/04 08:45:38;;;;;;;33.37;10.80;;;;;;;9.59;100.00;101272.69;7392162;19;20415;-60
2022/05/04 08:48:08;;;;;;;15.87;6.03;;;;;;;9.47;100.00;101279.75;7388743;19;20399;-58
2022/05/04 08:50:40;;;;;;;11.27;3.30;;;;;;;9.57;100.00;101285.50;7394188;19;20409;-59
2022/05/04 08:53:09;;;;;;;20.50;6.23;;;;;;;9.51;100.00;101282.56;7386548;19;20436;-60
2022/05/04 08:55:40;;;;;;;41.87;14.40;;;;;;;9.56;100.00;101306.00;7391841;19;20741;-59
2022/05/04 08:58:12;;;;;;;9.97;2.17;;;;;;;9.64;100.00;101301.28;7387907;19;20809;-60
2022/05/04 09:00:42;;;;;;;8.10;2.13;;;;;;;9.36;100.00;101312.63;7392505;19;20391;-59
2022/05/04 09:03:12;;;;;;;13.70;3.37;;;;;;;9.43;100.00;101296.72;7385559;19;20526;-61
2022/05/04 09:05:42;;;;;;;11.23;2.73;;;;;;;9.57;100.00;101300.94;7391183;19;20756;-60
2022/05/04 09:08:32;;;;;;;10.00;2.30;;;;;;;9.41;100.00;101300.91;7383730;19;20418;-58
2022/05/04 09:11:03;;;;;;;8.63;2.00;;;;;;;9.04;100.00;101297.16;7393771;19;20387;-59
2022/05/04 09:13:48;;;;;;;14.20;2.27;;;;;;;9.03;100.00;101301.41;7385805;19;20939;-60
2022/05/04 09:16:27;;;;;;;19.83;5.90;;;;;;;8.95;100.00;101297.53;7396086;19;20992;-56
2022/05/04 09:18:57;;;;;;;12.67;2.83;;;;;;;9.04;100.00;101302.31;7388351;19;20494;-57
2022/05/04 09:21:27;;;;;;;8.33;2.20;;;;;;;9.31;100.00;101305.56;7391502;19;20380;-58
2022/05/04 09:23:56;;;;;;;16.17;5.30;;;;;;;9.41;100.00;101309.53;7376154;19;20491;-58
2022/05/04 09:26:26;;;;;;;9.67;2.67;;;;;;;9.22;100.00;101312.75;7391272;19;20495;-57
2022/05/04 09:29:03;;;;;;;5.90;1.70;;;;;;;9.41;100.00;101309.53;7386270;19;20425;-59
2022/05/04 09:31:33;;;;;;;8.73;2.67;;;;;;;9.61;100.00;101314.88;7391535;19;20499;-57
2022/05/04 09:34:05;;;;;;;9.10;2.40;;;;;;;9.75;100.00;101318.22;7380961;19;20411;-59
2022/05/04 09:36:36;;;;;;;5.60;1.67;;;;;;;10.11;100.00;101312.34;7390896;19;20416;-59
2022/05/04 09:44:58;;;;;;;10.87;2.40;;;;;;;10.21;100.00;101324.03;7395218;19;20427;-57
2022/05/04 09:47:27;;;;;;;14.77;2.60;;;;;;;9.80;100.00;101332.22;7382644;19;20431;-57
2022/05/04 09:50:04;;;;;;;8.27;2.00;;;;;;;9.99;100.00;101328.94;7392270;19;20399;-58
2022/05/04 09:52:42;;;;;;;13.57;2.50;;;;;;;10.21;100.00;101332.63;7380995;19;20419;-57
2022/05/04 09:55:16;;;;;;;11.40;2.50;;;;;;;9.97;100.00;101334.81;7391021;19;20411;-59
2022/05/04 09:57:47;;;;;;;10.67;2.67;;;;;;;10.15;100.00;101323.72;7383232;19;20486;-60
2022/05/04 10:00:21;;;;;;;9.70;2.43;;;;;;;10.44;100.00;101329.53;7391704;19;20459;-59
2022/05/04 10:02:51;;;;;;;13.43;4.37;;;;;;;10.70;100.00;101329.94;7382735;19;20418;-60
2022/05/04 10:05:22;;;;;;;8.10;2.00;;;;;;;10.73;100.00;101338.78;7389448;19;20403;-59
2022/05/04 10:07:52;;;;;;;7.03;2.40;;;;;;;10.85;100.00;101338.47;7384181;19;20414;-60
2022/05/04 10:10:25;;;;;;;8.17;2.43;;;;;;;11.03;100.00;101337.63;7390923;19;20396;-58
2022/05/04 10:12:54;;;;;;;7.30;2.20;;;;;;;11.52;100.00;101341.69;7386782;19;20427;-60
2022/05/04 10:15:27;;;;;;;9.67;3.57;;;;;;;11.31;100.00;101354.47;7388950;19;20420;-61
2022/05/04 10:17:58;;;;;;;7.23;2.73;;;;;;;11.72;100.00;101349.47;7383778;19;20713;-60
2022/05/04 10:20:32;;;;;;;56.07;18.57;;;;;;;11.50;100.00;101350.16;7395120;19;20410;-60
2022/05/04 10:23:05;;;;;;;9.60;2.90;;;;;;;11.06;100.00;101345.50;7382228;19;20485;-60
2022/05/04 10:25:37;;;;;;;11.00;4.30;;;;;;;11.30;100.00;101347.53;7388909;19;20419;-60
2022/05/04 10:28:09;;;;;;;14.67;5.20;;;;;;;11.84;100.00;101328.50;7384117;19;20422;-61
2022/05/04 10:30:46;;;;;;;13.27;3.53;;;;;;;11.43;100.00;101343.84;7390559;19;20392;-60
2022/05/04 10:33:17;;;;;;;22.60;11.50;;;;;;;11.08;100.00;101343.91;7380510;19;20419;-61
2022/05/04 10:35:48;;;;;;;38.53;21.40;;;;;;;11.25;100.00;101336.09;7387742;19;20404;-60
2022/05/04 10:38:19;;;;;;;42.90;18.53;;;;;;;11.62;100.00;101343.00;7385634;19;20831;-61
2022/05/04 10:40:52;;;;;;;50.73;23.47;;;;;;;11.60;100.00;101342.06;7390475;19;20907;-59
2022/05/04 10:43:36;;;;;;;39.50;17.33;;;;;;;11.70;100.00;101336.47;7384350;19;20444;-59
2022/05/04 10:46:10;;;;;;;9.27;3.33;;;;;;;11.93;100.00;101348.69;7395637;19;20425;-59
2022/05/04 10:48:44;;;;;;;8.10;2.90;;;;;;;11.43;100.00;101346.44;7391741;19;20483;-58
2022/05/04 10:51:21;;;;;;;18.13;5.83;;;;;;;12.51;100.00;101339.22;7398303;19;20450;-59
2022/05/04 10:53:53;;;;;;;7.40;2.97;;;;;;;12.50;100.00;101346.09;7385281;19;20449;-59
2022/05/04 10:56:23;;;;;;;5.37;2.20;;;;;;;12.48;100.00;101342.56;7395593;19;20504;-58
2022/05/04 10:58:59;;;;;;;7.07;2.70;;;;;;;12.68;100.00;101343.38;7388359;19;20409;-59
2022/05/04 11:01:33;;;;;;;16.53;5.23;;;;;;;12.33;100.00;101359.97;7395612;19;20400;-59
2022/05/04 11:04:08;;;;;;;7.70;3.07;;;;;;;12.19;100.00;101349.91;7392081;19;20433;-57
2022/05/04 11:06:40;;;;;;;8.80;2.97;;;;;;;12.28;100.00;101352.91;7397285;19;20397;-59
2022/05/04 11:09:11;;;;;;;10.43;3.20;;;;;;;11.88;100.00;101348.50;7396627;19;20422;-59
2022/05/04 11:11:41;;;;;;;82.33;40.70;;;;;;;12.37;100.00;101336.03;7395474;19;20403;-60
2022/05/04 11:14:13;;;;;;;23.73;10.60;;;;;;;12.21;100.00;101345.69;7396007;19;20803;-59
2022/05/04 11:16:45;;;;;;;10.50;3.70;;;;;;;11.87;100.00;101334.69;7390826;19;20412;-57
2022/05/04 11:19:16;;;;;;;7.70;2.83;;;;;;;11.98;100.00;101340.34;7396695;19;20386;-57
2022/05/04 11:21:46;;;;;;;13.30;5.60;;;;;;;12.71;100.00;101347.81;7389189;19;20387;-59
2022/05/04 11:24:17;;;;;;;41.00;16.80;;;;;;;12.20;100.00;101333.56;7395931;19;20837;-56
2022/05/04 11:26:48;;;;;;;6.23;2.50;;;;;;;12.13;100.00;101336.69;7392285;19;20397;-59
2022/05/04 11:29:19;;;;;;;14.47;3.30;;;;;;;11.78;100.00;101338.56;7396619;19;20390;-57
2022/05/04 11:31:54;;;;;;;12.13;4.60;;;;;;;12.09;100.00;101334.78;7387811;19;20388;-58
2022/05/04 11:34:25;;;;;;;9.50;3.27;;;;;;;12.11;100.00;101340.94;7395477;19;20397;-58
2022/05/04 11:36:56;;;;;;;32.37;15.93;;;;;;;12.74;100.00;101337.59;7390608;19;20388;-59
2022/05/04 11:39:27;;;;;;;9.50;2.60;;;;;;;12.79;100.00;101337.78;7396442;19;20436;-59
2022/05/04 11:41:59;;;;;;;10.80;3.10;;;;;;;12.88;100.00;101339.88;7390497;19;20463;-60
2022/05/04 11:44:30;;;;;;;10.80;3.47;;;;;;;13.14;100.00;101338.38;7397915;19;20468;-59
2022/05/04 11:47:04;;;;;;;16.60;6.47;;;;;;;12.76;100.00;101335.09;7392344;19;20399;-57
2022/05/04 11:49:35;;;;;;;12.87;4.43;;;;;;;12.46;100.00;101333.81;7396213;19;20403;-57
2022/05/04 11:52:07;;;;;;;32.70;11.83;;;;;;;12.06;100.00;101332.06;7390661;19;20752;-59
2022/05/04 11:54:37;;;;;;;15.33;6.80;;;;;;;12.54;100.00;101327.28;7393515;19;20379;-59
2022/05/04 11:57:13;;;;;;;20.27;7.13;;;;;;;12.90;100.00;101323.59;7388830;19;20773;-59
2022/05/04 11:59:42;;;;;;;23.80;8.40;;;;;;;13.31;100.00;101332.97;7395746;19;20387;-58
2022/05/04 12:02:15;;;;;;;6.83;3.03;;;;;;;12.90;100.00;101328.78;7390058;19;20418;-58